• Join FlightAware (Why Join?)
  • Login
  • US Flag 
03:24AM EST


 

Airport Tracker/Info


-or-


 

Live Flight TrackerFlight Track Log ✈ AAL2444 ✈ 08-May-2013 ✈ KLAX - KDFW

Flight Track Log - Related Links

Times and Time Zones

All times are in EDT time to prevent confusion due to time zone crossing. See the AAL2444 flight status page for this flight to view local times or setup timezone preferences in your user account.

Time Position Orientation Groundspeed Altitude Reporting Facility
EDT Latitude Longitude Course Direction KTS MPH feet Rate Location/Type
02:54PM 33.9140 -118.4770 223° Southwest 209 241 2,400  Level FlightAware
02:55PM 33.8900 -118.5010 220° Southwest 244 281 3,100 1,500 Climbing FlightAware
02:55PM 33.8630 -118.5160 205° Southwest 263 303 3,800 2,160 Climbing FlightAware
02:56PM 33.8260 -118.5200 185° South 272 313 5,100 1,920 Climbing FlightAware
02:56PM 33.7760 -118.5210 181° South 287 330 6,100 1,800 Climbing FlightAware
02:57PM 33.7420 -118.5210 180° South 297 342 7,100 2,820 Climbing FlightAware
02:57PM 33.6880 -118.5060 167° South 295 339 9,200 3,060 Climbing FlightAware
02:58PM 33.6690 -118.4800 131° Southeast 300 345 10,200 2,100 Climbing FlightAware
02:58PM 33.6300 -118.4240 130° Southeast 338 389 11,300 2,220 Climbing FlightAware
02:59PM 33.5860 -118.3600 130° Southeast 349 402 13,400 2,700 Climbing FlightAware
03:00PM 33.5490 -118.2940 124° Southeast 363 418 15,200 2,100 Climbing FlightAware
03:01PM 33.5290 -118.2160 107° East 397 457 16,200 1,740 Climbing FlightAware
03:01PM 33.5220 -118.1080 94° East 425 489 17,700 2,160 Climbing FlightAware
03:02PM 33.5170 -118.0110 94° East 435 501 19,300 2,280 Climbing FlightAware
03:03PM 33.5100 -117.9060 95° East 443 510 21,000 1,860 Climbing FlightAware
03:03PM 33.4880 -117.8120 106° East 450 518 22,000 1,500 Climbing FlightAware
03:04PM 33.4580 -117.7150 110° East 461 531 23,000 1,500 Climbing FlightAware
03:05PM 33.4360 -117.6450 111° Southeast 469 540 23,800 1,500 Climbing FlightAware
03:05PM 33.4060 -117.5460 110° East 480 552 24,800 1,500 Climbing FlightAware
03:06PM 33.3690 -117.4270 110° East 486 559 26,000 1,740 Climbing FlightAware
03:07PM 33.3380 -117.3290 111° Southeast 484 557 27,300 2,160 Climbing FlightAware
03:07PM 33.3070 -117.2300 111° Southeast 472 543 28,900 1,500 Climbing FlightAware
03:08PM 33.2730 -117.1220 111° Southeast 485 558 29,500 1,020 Climbing FlightAware
03:09PM 33.2420 -117.0260 111° Southeast 489 563 30,400 1,620 Climbing FlightAware
03:09PM 33.2090 -116.9190 110° East 484 557 31,700 1,680 Climbing FlightAware
03:10PM 33.1880 -116.8540 111° Southeast 480 552 32,500 1,320 Climbing FlightAware
03:11PM 33.1440 -116.7150 111° Southeast 478 550 33,700 1,200 Climbing FlightAware
03:11PM 33.1140 -116.6240 111° Southeast 483 556 34,300 840 Climbing FlightAware
03:12PM 33.0840 -116.5210 109° East 492 566 34,800 840 Climbing FlightAware
03:13PM 33.0680 -116.4110 100° East 499 574 35,500 900 Climbing FlightAware
03:14PM 33.0520 -116.2660 97° East 504 580 36,200 840 Climbing FlightAware
03:14PM 33.0380 -116.1450 98° East 506 582 36,800 840 Climbing FlightAware
03:15PM 33.0250 -116.0280 98° East 506 582 37,400 840 Climbing FlightAware
03:16PM 33.0150 -115.9390 98° East 505 581 37,900 600 Climbing FlightAware
03:16PM 33.0000 -115.7990 97° East 509 586 38,300 240 Climbing FlightAware
03:17PM 32.9900 -115.7110 98° East 510 587 38,300  Level FlightAware
03:18PM 32.9780 -115.5920 97° East 510 587 38,300  Level FlightAware
03:19PM 32.9680 -115.4970 97° East 510 587 38,300  Level FlightAware
03:19PM 32.9590 -115.4020 96° East 510 587 38,300  Level FlightAware
03:20PM 32.9490 -115.3070 97° East 510 587 38,300  Level FlightAware
03:21PM 32.9390 -115.2120 97° East 510 587 38,300  Level FlightAware
03:21PM 32.9290 -115.1180 97° East 510 587 38,300  Level FlightAware
03:22PM 32.9190 -115.0230 97° East 510 587 38,300  Level FlightAware
03:23PM 32.9070 -114.9040 97° East 510 587 38,300  Level FlightAware
03:23PM 32.8970 -114.8090 97° East 510 587 38,300  Level FlightAware
03:24PM 32.8880 -114.7140 96° East 510 587 38,300  Level FlightAware
03:25PM 32.8750 -114.5960 97° East 510 587 38,300 420 Level FlightAware
03:26PM 32.8150 -114.2770 103° East 524 603 39,000 420 Climbing FlightAware
03:26PM 32.7980 -114.1380 98° East 524 603 39,000  Level FlightAware
03:27PM 32.7830 -114.0150 98° East 526 605 39,000  Level FlightAware
03:28PM 32.7890 -113.8820 87° East 536 617 39,000  Level FlightAware
03:28PM 32.8020 -113.7930 80° East 538 619 39,000  Level FlightAware
03:29PM 32.8280 -113.6100 80° East 539 620 39,000  Level FlightAware
03:30PM 32.8380 -113.5360 81° East 540 621 39,000  Level FlightAware
03:31PM 32.8550 -113.4210 80° East 540 621 39,000  Level FlightAware
03:31PM 32.8800 -113.2360 81° East 545 627 39,000  Level FlightAware
03:32PM 32.8960 -113.1190 81° East 547 629 39,000  Level FlightAware
03:33PM 32.9140 -112.9890 81° East 549 632 39,000  Level FlightAware
03:33PM 32.9300 -112.8670 81° East 552 635 39,000  Level FlightAware
03:34PM 32.9400 -112.7480 84° East 549 632 39,000  Level FlightAware
03:35PM 32.9290 -112.6160 96° East 543 625 39,000  Level FlightAware
03:36PM 32.9140 -112.4920 98° East 545 627 39,000  Level FlightAware
03:36PM 32.8970 -112.3630 99° East 544 626 39,000  Level FlightAware
03:37PM 32.8810 -112.2440 99° East 545 627 39,000  Level FlightAware
03:38PM 32.8660 -112.1270 99° East 546 628 39,000  Level FlightAware
03:38PM 32.8480 -111.9910 99° East 546 628 39,000  Level FlightAware
03:39PM 32.8320 -111.8720 99° East 545 627 39,000  Level FlightAware
03:40PM 32.8140 -111.7390 99° East 548 631 39,000  Level FlightAware
03:40PM 32.7980 -111.6210 99° East 547 629 39,000  Level FlightAware
03:41PM 32.7820 -111.5040 99° East 548 631 39,000  Level FlightAware
03:42PM 32.7640 -111.3670 99° East 548 631 39,000  Level FlightAware
03:43PM 32.7470 -111.2500 100° East 550 633 39,000  Level FlightAware
03:43PM 32.7290 -111.1190 99° East 550 633 39,000  Level FlightAware
03:44PM 32.7120 -110.9980 99° East 552 635 39,000  Level FlightAware
03:45PM 32.6950 -110.8800 100° East 554 638 39,000  Level FlightAware
03:45PM 32.6750 -110.7430 100° East 554 638 39,000  Level FlightAware
03:46PM 32.6590 -110.6260 99° East 556 640 39,000  Level FlightAware
03:47PM 32.6410 -110.5000 100° East 560 644 39,000  Level FlightAware
03:47PM 32.6220 -110.3670 100° East 563 648 39,000  Level FlightAware
03:48PM 32.6010 -110.2280 100° East 565 650 39,000  Level FlightAware
03:49PM 32.5850 -110.1230 100° East 566 651 39,000  Level FlightAware
03:50PM 32.5650 -109.9830 100° East 570 656 39,000  Level FlightAware
03:50PM 32.5470 -109.8650 100° East 572 658 39,000  Level FlightAware
03:51PM 32.5250 -109.7210 100° East 575 662 39,000  Level FlightAware
03:52PM 32.5050 -109.5870 100° East 578 665 39,000  Level FlightAware
03:52PM 32.4850 -109.4580 100° East 578 665 39,000  Level FlightAware
03:53PM 32.4630 -109.3150 100° East 581 669 39,000  Level FlightAware
03:54PM 32.4440 -109.1960 101° East 581 669 39,000  Level FlightAware
03:54PM 32.4240 -109.0670 100° East 577 664 39,000  Level FlightAware
03:55PM 32.4030 -108.9300 100° East 575 662 39,000  Level FlightAware
03:56PM 32.3830 -108.8070 101° East 577 664 39,000  Level FlightAware
03:57PM 32.3630 -108.6810 101° East 579 666 39,000  Level FlightAware
03:57PM 32.3480 -108.5820 100° East 579 666 39,000  Level FlightAware
03:58PM 32.3280 -108.4490 100° East 579 666 39,000  Level FlightAware
03:59PM 32.3120 -108.3430 100° East 579 666 39,000  Level FlightAware
03:59PM 32.2960 -108.2370 100° East 579 666 39,000  Level FlightAware
04:00PM 32.2800 -108.1300 100° East 579 666 39,000  Level FlightAware
04:01PM 32.2650 -108.0240 99° East 579 666 39,000  Level FlightAware
04:01PM 32.2450 -107.8920 100° East 579 666 39,000  Level FlightAware
04:02PM 32.2290 -107.7860 100° East 579 666 39,000  Level FlightAware
04:03PM 32.2130 -107.6800 100° East 579 666 39,000  Level FlightAware
04:04PM 32.1930 -107.5470 100° East 579 666 39,000  Level FlightAware
04:04PM 32.1330 -107.2980 106° East 574 661 39,000  Level FlightAware
04:05PM 32.1120 -107.1700 101° East 574 661 39,000  Level FlightAware
04:06PM 32.0820 -107.0030 102° East 577 664 39,000  Level FlightAware
04:06PM 32.0600 -106.8760 102° East 577 664 39,000  Level FlightAware
04:07PM 32.0350 -106.7360 102° East 578 665 39,000  Level FlightAware
04:08PM 32.0130 -106.6120 102° East 578 665 39,000  Level FlightAware
04:08PM 31.9910 -106.4910 102° East 578 665 39,000  Level FlightAware
04:09PM 31.9660 -106.3510 102° East 581 669 39,000  Level FlightAware
04:10PM 31.9510 -106.2270 98° East 585 673 39,000  Level FlightAware
04:11PM 31.9490 -106.1010 91° East 587 676 39,000  Level FlightAware
04:11PM 31.9470 -105.9580 91° East 588 677 39,000  Level FlightAware
04:12PM 31.9450 -105.8410 91° East 589 678 39,000  Level FlightAware
04:13PM 31.9430 -105.7320 91° East 589 678 39,000  Level FlightAware
04:13PM 31.9420 -105.6230 91° East 589 678 39,000  Level FlightAware
04:14PM 31.9400 -105.5140 91° East 589 678 39,000  Level FlightAware
04:15PM 31.9380 -105.3770 91° East 589 678 39,000  Level FlightAware
04:15PM 31.9360 -105.2680 91° East 589 678 39,000  Level FlightAware
04:16PM 31.9350 -105.1590 91° East 589 678 39,000  Level FlightAware
04:17PM 31.9330 -105.0500 91° East 589 678 39,000  Level FlightAware
04:17PM 31.9310 -104.9400 91° East 589 678 39,000  Level FlightAware
04:18PM 31.9300 -104.8310 91° East 589 678 39,000  Level FlightAware
04:19PM 31.9280 -104.6950 91° East 589 678 39,000  Level FlightAware
04:20PM 31.9260 -104.5860 91° East 589 678 39,000  Level FlightAware
04:20PM 31.9240 -104.4770 91° East 589 678 39,000  Level FlightAware
04:21PM 31.9230 -104.3670 91° East 589 678 39,000  Level FlightAware
04:22PM 31.9914 -104.0211 91° East 571 657 39,000  Level Fort Worth Center
04:22PM 32.0033 -103.8464 85° East 579 666 39,000  Level Albuquerque Center
04:24PM 32.0200 -103.6603 84° East 576 663 39,000  Level Albuquerque Center
04:25PM 32.0336 -103.4331 86° East 581 669 39,000  Level Albuquerque Center
04:27PM 32.0561 -103.0825 86° East 572 658 39,000  Level Fort Worth Center
04:28PM 32.0686 -102.8944 85° East 572 658 39,000  Level Fort Worth Center
04:33PM 32.1330 -101.8690 85° East 561 646 39,000  Level FlightAware
04:34PM 32.1410 -101.7280 86° East 559 643 39,000  Level FlightAware
04:34PM 32.1480 -101.6060 86° East 558 642 39,000  Level FlightAware
04:35PM 32.1550 -101.4720 86° East 559 643 39,000  Level FlightAware
04:36PM 32.1620 -101.3510 86° East 559 643 39,000  Level FlightAware
04:37PM 32.1700 -101.2100 86° East 559 643 39,000  Level FlightAware
04:37PM 32.1760 -101.0890 87° East 559 643 39,000  Level FlightAware
04:38PM 32.1820 -100.9690 87° East 560 644 39,000  Level FlightAware
04:39PM 32.1890 -100.8350 86° East 561 646 39,000  Level FlightAware
04:39PM 32.1950 -100.7180 87° East 557 641 39,000  Level FlightAware
04:40PM 32.2020 -100.5810 87° East 556 640 39,000  Level FlightAware
04:41PM 32.2080 -100.4520 87° East 555 639 39,000  Level FlightAware
04:41PM 32.2120 -100.3620 87° East 553 636 39,000  Level FlightAware
04:42PM 32.2190 -100.1990 87° East 551 634 39,000  Level FlightAware
04:43PM 32.2240 -100.0840 87° East 550 633 39,000  Level FlightAware
04:44PM 32.2300 -99.9420 87° East 546 628 39,000  Level FlightAware
04:44PM 32.2230 -99.7880 93° East 544 626 39,000  Level FlightAware
04:45PM 32.1790 -99.6820 116° Southeast 533 613 39,000 -600 Level FlightAware
04:46PM 32.1050 -99.5810 131° Southeast 523 602 38,200 -1,020 Descending FlightAware
04:46PM 32.0550 -99.5140 131° Southeast 519 597 37,700 -900 Descending FlightAware
04:47PM 31.9780 -99.4120 132° Southeast 510 587 37,000 -1,140 Descending FlightAware
04:48PM 31.9160 -99.3150 127° Southeast 510 587 36,000 -2,580 Descending FlightAware
04:49PM 31.8890 -99.2040 106° East 528 608 33,400 -3,720 Descending FlightAware
04:49PM 31.8930 -99.0950 87° East 535 616 31,100 -3,300 Descending FlightAware
04:50PM 31.9190 -98.9650 77° East 524 603 28,800 -2,880 Descending FlightAware
04:51PM 31.9440 -98.8530 75° East 506 582 27,100 -2,400 Descending FlightAware
04:51PM 31.9680 -98.7470 75° East 490 564 25,600 -2,220 Descending FlightAware
04:52PM 31.9930 -98.6360 75° East 472 543 24,000 -1,860 Descending FlightAware
04:53PM 32.0140 -98.5400 76° East 455 524 23,000 -1,560 Descending FlightAware
04:54PM 32.0390 -98.4290 75° East 452 520 21,800 -1,740 Descending FlightAware
04:54PM 32.0630 -98.3350 73° East 443 510 20,600 -1,980 Descending FlightAware
04:55PM 32.1050 -98.2440 61° Northeast 429 494 19,000 -1,860 Descending FlightAware
04:56PM 32.1430 -98.1690 59° Northeast 423 487 18,000 -1,140 Descending FlightAware
04:56PM 32.1840 -98.0850 60° Northeast 420 483 17,500 -900 Descending FlightAware
04:57PM 32.2240 -98.0060 59° Northeast 417 480 16,800 -1,200 Descending FlightAware
04:58PM 32.2650 -97.9230 60° Northeast 407 468 15,800 -1,380 Descending FlightAware
04:58PM 32.3070 -97.8390 59° Northeast 401 461 14,800 -1,380 Descending FlightAware
04:59PM 32.3460 -97.7600 60° Northeast 384 442 13,900 -1,320 Descending FlightAware
05:00PM 32.3790 -97.6920 60° Northeast 359 413 13,100 -1,200 Descending FlightAware
05:01PM 32.4140 -97.6200 60° Northeast 340 391 12,200 -1,200 Descending FlightAware
05:01PM 32.4470 -97.5530 60° Northeast 322 371 11,400 -900 Descending FlightAware
05:02PM 32.4830 -97.4910 55° Northeast 314 361 11,000 -300 Descending FlightAware
05:03PM 32.5230 -97.4430 45° Northeast 311 358 11,000  Level FlightAware
05:03PM 32.5640 -97.3940 45° Northeast 313 360 11,000  Level FlightAware
05:04PM 32.6090 -97.3400 45° Northeast 312 359 11,000  Level FlightAware
05:05PM 32.6480 -97.2930 45° Northeast 311 358 11,000  Level FlightAware
05:05PM 32.6910 -97.2400 46° Northeast 313 360 11,000  Level FlightAware
05:06PM 32.7340 -97.1880 45° Northeast 283 326 11,000 -180 Level FlightAware
05:07PM 32.7630 -97.1690 29° Northeast 261 300 10,800 -1,320 Descending FlightAware
05:07PM 32.8190 -97.1680 North 262 302 9,500 -1,680 Descending FlightAware
05:08PM 32.8470 -97.1670 North 260 299 8,900 -1,440 Descending FlightAware
05:08PM 32.8830 -97.1670 360° North 252 290 8,200 -1,740 Descending FlightAware
05:09PM 32.9170 -97.1660 North 257 296 7,200 -1,800 Descending FlightAware
05:09PM 32.9470 -97.1650 North 258 297 6,600 -1,440 Descending FlightAware
05:10PM 32.9820 -97.1650 360° North 253 291 5,900 -1,200 Descending FlightAware
05:10PM 33.0120 -97.1640 North 240 276 5,500 -1,140 Descending FlightAware
05:11PM 33.0440 -97.1630 North 226 260 4,900 -1,440 Descending FlightAware
05:11PM 33.0690 -97.1630 360° North 227 261 4,200 -1,500 Descending FlightAware
05:11PM 33.0840 -97.1580 16° North 224 258 3,900 -1,020 Descending FlightAware
05:11PM 33.0980 -97.1470 33° Northeast 216 249 3,700 -840 Descending FlightAware
05:12PM 33.1060 -97.1330 56° Northeast 211 243 3,500 -840 Descending FlightAware
05:12PM 33.1100 -97.1160 74° East 203 234 3,300 -600 Descending FlightAware
05:12PM 33.1040 -97.0920 107° East 183 211 3,100 -480 Descending FlightAware
05:13PM 33.0940 -97.0820 140° Southeast 177 204 3,000  Descending FlightAware
05:13PM 33.0740 -97.0700 153° Southeast 168 193 3,100  Climbing FlightAware
05:14PM 33.0560 -97.0610 157° South 161 185 3,000 -300 Descending FlightAware
05:14PM 33.0440 -97.0560 161° South 156 180 2,900 -360 Descending FlightAware
05:14PM 33.0320 -97.0540 172° South 157 181 2,800 -660 Descending FlightAware
05:15PM 33.0050 -97.0540 180° South 154 177 2,300 -840 Descending FlightAware
05:15PM 32.9940 -97.0540 180° South 159 183 2,100 -840 Descending FlightAware
05:15PM 32.9740 -97.0540 180° South 141 162 1,700 -480 Descending FlightAware
05:16PM 32.9530 -97.0540 180° South 139 160 1,600 -180 Descending FlightAware